Time;durP1;ratioP1;P1;durP2;ratioP2;P2;SDS_P1;SDS_P2;PMS_P1;PMS_P2;Temp;Humidity;BMP_temperature;BMP_pressure;BME280_temperature;BME280_humidity;BME280_pressure;Samples;Min_cycle;Max_cycle;Signal;HPM_P1;HPM_P2
2022/08/14 00:00:49;;;;;;;4.85;4.35;;;;;;;20.92;53.08;99972.03;5074919;28;20049;-61
2022/08/14 00:03:25;;;;;;;6.80;4.50;;;;;;;20.90;53.19;99977.28;5071924;28;20063;-61
2022/08/14 00:05:56;;;;;;;5.57;4.97;;;;;;;20.86;53.03;99974.44;5071559;28;20064;-61
2022/08/14 00:08:27;;;;;;;5.70;4.60;;;;;;;20.82;53.20;99969.97;5071832;28;20063;-61
2022/08/14 00:10:54;;;;;;;5.32;4.70;;;;;;;20.80;53.41;99963.91;5083780;28;20056;-60
2022/08/14 00:13:27;;;;;;;4.88;4.47;;;;;;;20.77;53.48;99965.50;5092090;28;20063;-61
2022/08/14 00:15:58;;;;;;;5.97;4.70;;;;;;;20.72;53.58;99962.22;5079056;28;20079;-61
2022/08/14 00:18:27;;;;;;;6.20;4.93;;;;;;;20.72;53.83;99960.22;5071806;28;20060;-60
2022/08/14 00:20:56;;;;;;;6.78;5.40;;;;;;;20.65;54.01;99963.81;5071698;28;20052;-61
2022/08/14 00:23:24;;;;;;;5.57;5.05;;;;;;;20.59;54.04;99958.94;5071494;28;20044;-61
2022/08/14 00:25:53;;;;;;;6.50;4.70;;;;;;;20.59;54.36;99956.09;5089094;28;20047;-60
2022/08/14 00:28:25;;;;;;;6.30;5.65;;;;;;;20.57;54.47;99952.81;5091815;28;20056;-61
2022/08/14 00:30:56;;;;;;;5.57;4.85;;;;;;;20.52;54.74;99954.00;5083877;28;20060;-61
2022/08/14 00:33:27;;;;;;;5.43;4.78;;;;;;;20.50;54.76;99953.59;5071671;28;20049;-61
2022/08/14 00:35:54;;;;;;;6.68;5.30;;;;;;;20.51;54.89;99946.72;5071900;28;20492;-61
2022/08/14 00:38:22;;;;;;;5.20;4.60;;;;;;;20.48;55.07;99945.50;5084597;28;20044;-61
2022/08/14 00:40:50;;;;;;;6.13;5.35;;;;;;;20.39;55.50;99939.38;5090909;28;20052;-61
2022/08/14 00:43:21;;;;;;;5.72;4.97;;;;;;;20.38;55.24;99945.44;5076061;28;20128;-61
2022/08/14 00:45:49;;;;;;;5.25;4.70;;;;;;;20.32;55.75;99936.50;5075440;28;20052;-61
2022/08/14 00:48:17;;;;;;;5.63;4.85;;;;;;;20.28;55.84;99930.00;5075970;28;20063;-61
2022/08/14 00:50:46;;;;;;;5.57;5.05;;;;;;;20.27;55.87;99931.22;5074649;28;20052;-61
2022/08/14 00:53:15;;;;;;;5.70;4.75;;;;;;;20.24;55.87;99935.66;5075620;28;20064;-61
2022/08/14 00:55:45;;;;;;;5.68;5.15;;;;;;;20.21;56.01;99927.94;5075329;28;20059;-61
2022/08/14 00:58:34;;;;;;;6.50;5.57;;;;;;;20.18;56.16;99925.91;5075862;28;20123;-61
2022/08/14 01:01:17;;;;;;;5.93;5.10;;;;;;;20.18;56.10;99936.41;5074909;28;20056;-61
2022/08/14 01:03:45;;;;;;;6.45;4.95;;;;;;;20.15;56.54;99929.50;5075582;28;20060;-61
2022/08/14 01:06:17;;;;;;;5.63;5.13;;;;;;;20.15;56.53;99932.34;5086721;28;20055;-61
2022/08/14 01:08:45;;;;;;;5.90;5.40;;;;;;;20.13;56.52;99929.09;5075440;28;20056;-61
2022/08/14 01:11:15;;;;;;;6.32;5.32;;;;;;;20.11;56.62;99925.84;5075006;28;20052;-61
2022/08/14 01:13:43;;;;;;;;;;;;;;;20.05;56.88;99922.59;5075471;28;20401;-61
2022/08/14 01:16:13;;;;;;;6.18;5.57;;;;;;;20.05;56.94;99919.78;5075317;28;19920;-61
2022/08/14 01:21:33;;;;;;;10.55;6.30;;;;;;;20.05;57.20;99910.44;5038139;28;20523;-61
2022/08/14 01:24:02;;;;;;;8.27;6.32;;;;;;;20.00;57.30;99913.66;5071922;28;20060;-60
2022/08/14 01:26:29;;;;;;;6.25;5.47;;;;;;;19.96;57.38;99905.16;5074695;28;20508;-60
2022/08/14 01:29:00;;;;;;;6.07;5.57;;;;;;;19.94;57.43;99906.75;5074965;28;20059;-60
2022/08/14 01:31:30;;;;;;;5.82;5.32;;;;;;;19.93;57.67;99905.09;5074893;28;20049;-60
2022/08/14 01:33:59;;;;;;;6.68;6.07;;;;;;;19.90;57.93;99898.22;5074753;28;20049;-60
2022/08/14 01:36:27;;;;;;;;;;;;;;;19.84;57.90;99900.63;5076323;28;20080;-61
2022/08/14 01:38:56;;;;;;;7.32;6.15;;;;;;;19.80;58.09;99894.13;5079178;28;19924;-60
2022/08/14 01:41:26;;;;;;;5.85;5.35;;;;;;;19.78;58.11;99895.72;5074246;28;20386;-61
2022/08/14 01:43:59;;;;;;;6.35;5.57;;;;;;;19.77;58.06;99886.44;5074701;28;20053;-60
2022/08/14 01:46:41;;;;;;;6.00;5.50;;;;;;;19.74;58.37;99890.06;5074628;28;20056;-61
2022/08/14 01:49:22;;;;;;;6.68;6.07;;;;;;;19.73;58.36;99882.75;5083088;28;20044;-60
2022/08/14 01:51:56;;;;;;;5.90;5.40;;;;;;;19.70;58.52;99883.56;5095405;28;20052;-61
2022/08/14 01:54:35;;;;;;;6.43;5.82;;;;;;;19.61;58.84;99881.03;5079378;28;20520;-61
2022/08/14 01:57:10;;;;;;;6.15;5.65;;;;;;;19.61;58.73;99868.91;5075362;28;20059;-61
2022/08/14 01:59:43;;;;;;;7.80;6.68;;;;;;;19.57;59.25;99863.25;5074187;28;20056;-61
2022/08/14 02:02:14;;;;;;;7.25;5.95;;;;;;;19.55;59.22;99856.34;5076399;28;20119;-61
2022/08/14 02:04:45;;;;;;;6.82;6.22;;;;;;;19.54;59.34;99849.88;5079600;28;20060;-61
2022/08/14 02:07:19;;;;;;;7.32;6.65;;;;;;;19.51;59.76;99845.03;5075394;28;20390;-60
2022/08/14 02:09:53;;;;;;;7.60;6.82;;;;;;;19.54;59.56;99846.25;5074486;28;20048;-61
2022/08/14 02:12:29;;;;;;;7.40;6.80;;;;;;;19.53;59.81;99838.97;5074956;28;20405;-61
2022/08/14 02:15:00;;;;;;;7.50;6.80;;;;;;;19.58;59.81;99838.63;5074854;28;20044;-61
2022/08/14 02:17:28;;;;;;;6.90;5.82;;;;;;;19.57;59.83;99843.47;5079550;28;20492;-61
2022/08/14 02:20:10;;;;;;;6.35;5.85;;;;;;;19.55;59.79;99843.03;5082969;28;20052;-61
2022/08/14 02:22:50;;;;;;;6.82;6.22;;;;;;;19.55;59.82;99836.56;5074086;28;20048;-61
2022/08/14 02:25:33;;;;;;;7.45;6.63;;;;;;;19.52;59.81;99832.50;5074375;28;20052;-61
2022/08/14 02:28:09;;;;;;;6.78;6.18;;;;;;;19.50;60.04;99829.25;5074636;28;20488;-61
2022/08/14 02:30:45;;;;;;;7.28;6.63;;;;;;;19.49;60.06;99822.00;5073153;28;20144;-61
2022/08/14 02:33:13;;;;;;;7.10;6.50;;;;;;;19.47;60.05;99822.38;5054632;28;20052;-66
2022/08/14 02:35:42;;;;;;;7.70;7.03;;;;;;;19.45;59.93;99821.16;5068208;28;20049;-66
2022/08/14 02:38:15;;;;;;;7.90;7.15;;;;;;;19.46;59.99;99811.47;5074388;28;20053;-68
2022/08/14 02:40:50;;;;;;;7.45;6.75;;;;;;;19.44;60.18;99814.72;5074182;28;20052;-65
2022/08/14 02:43:32;;;;;;;7.85;6.45;;;;;;;19.43;60.60;99817.91;5074334;28;20056;-61
2022/08/14 02:46:02;;;;;;;7.78;7.07;;;;;;;19.37;60.53;99814.63;5079373;28;20055;-61
2022/08/14 02:48:35;;;;;;;;;;;;;;;19.30;60.70;99806.13;5094300;28;20056;-61
2022/08/14 02:53:55;;;;;;;7.97;7.15;;;;;;;19.23;61.05;99806.03;5071695;28;20048;-61
2022/08/14 02:56:32;;;;;;;7.68;6.97;;;;;;;19.22;61.17;99802.41;5074405;28;20052;-61
2022/08/14 02:59:12;;;;;;;8.07;7.38;;;;;;;19.18;61.32;99801.56;5085179;28;20048;-61
2022/08/14 03:01:53;;;;;;;7.85;7.13;;;;;;;19.18;61.39;99803.59;5077243;28;20547;-61
2022/08/14 03:04:28;;;;;;;8.00;7.10;;;;;;;19.16;61.80;99791.88;5074222;28;20063;-61
2022/08/14 03:07:08;;;;;;;7.72;7.13;;;;;;;19.15;61.66;99795.88;5074521;28;20052;-62
2022/08/14 03:09:42;;;;;;;7.43;6.72;;;;;;;19.12;61.48;99802.31;5072561;28;20067;-61
2022/08/14 03:12:15;;;;;;;8.18;7.35;;;;;;;19.11;61.74;99789.38;5080069;28;20044;-61
2022/08/14 03:14:47;;;;;;;8.68;7.88;;;;;;;19.12;61.83;99791.81;5093617;28;20055;-61
2022/08/14 03:17:16;;;;;;;8.48;7.50;;;;;;;19.10;62.06;99782.13;5076597;28;20052;-61
2022/08/14 03:19:52;;;;;;;7.80;7.10;;;;;;;19.09;61.91;99789.78;5072753;28;20052;-61
2022/08/14 03:22:32;;;;;;;8.25;7.50;;;;;;;19.05;61.87;99792.56;5072750;28;20492;-61
2022/08/14 03:25:03;;;;;;;8.50;7.20;;;;;;;19.04;62.15;99796.59;5073340;28;20045;-61
2022/08/14 03:27:38;;;;;;;9.75;7.57;;;;;;;19.01;62.33;99799.41;5085335;28;20056;-61
2022/08/14 03:30:07;;;;;;;8.60;7.80;;;;;;;19.01;62.53;99797.38;5093352;28;20059;-61
2022/08/14 03:32:34;;;;;;;8.80;8.00;;;;;;;18.99;62.34;99788.47;5077661;28;20048;-61
2022/08/14 03:35:02;;;;;;;7.97;7.20;;;;;;;18.97;62.48;99790.88;5072571;28;20466;-61
2022/08/14 03:37:29;;;;;;;8.43;7.63;;;;;;;19.00;62.35;99784.47;5072189;28;20056;-61
2022/08/14 03:39:57;;;;;;;7.90;7.20;;;;;;;18.97;62.44;99788.06;5073708;28;20052;-61
2022/08/14 03:42:24;;;;;;;8.50;7.70;;;;;;;18.95;62.46;99787.63;5081647;28;20048;-61
2022/08/14 03:44:53;;;;;;;8.73;7.93;;;;;;;18.94;62.65;99785.19;5072307;28;20071;-61
2022/08/14 03:47:20;;;;;;;8.93;8.13;;;;;;;18.91;62.68;99786.78;5071738;28;20048;-61
2022/08/14 03:49:47;;;;;;;8.63;7.70;;;;;;;18.94;62.82;99783.22;5072335;28;20477;-61
2022/08/14 03:52:15;;;;;;;8.95;8.07;;;;;;;18.81;63.43;99788.28;5072162;28;20064;-61
2022/08/14 03:54:43;;;;;;;7.90;7.20;;;;;;;18.85;63.13;99780.69;5064040;28;20063;-61
2022/08/14 03:57:10;;;;;;;9.18;8.38;;;;;;;18.86;63.21;99775.88;5087579;28;20048;-61
2022/08/14 03:59:38;;;;;;;10.68;8.52;;;;;;;18.81;63.67;99784.66;5071941;28;20059;-61
2022/08/14 04:02:07;;;;;;;9.25;8.32;;;;;;;18.81;63.49;99779.81;5071385;28;20052;-61
2022/08/14 04:04:34;;;;;;;10.07;8.30;;;;;;;18.75;63.56;99781.38;5072046;28;20059;-62
2022/08/14 04:07:02;;;;;;;9.10;8.20;;;;;;;18.76;63.49;99780.16;5071828;28;20059;-61
2022/08/14 04:09:29;;;;;;;9.40;8.60;;;;;;;18.76;63.79;99780.16;5081061;28;20063;-61
2022/08/14 04:11:58;;;;;;;9.60;8.70;;;;;;;18.75;64.03;99783.34;5091154;28;20063;-61
2022/08/14 04:14:27;;;;;;;9.93;9.13;;;;;;;18.73;63.83;99785.75;5073009;28;20052;-61
2022/08/14 04:16:55;;;;;;;9.30;8.40;;;;;;;18.74;63.76;99778.94;5071618;28;20075;-61
2022/08/14 04:19:23;;;;;;;9.40;8.60;;;;;;;18.73;64.13;99778.13;5072126;28;20052;-61
2022/08/14 04:21:51;;;;;;;9.40;8.50;;;;;;;18.73;64.11;99789.41;5072063;28;20055;-62
2022/08/14 04:24:18;;;;;;;9.10;8.20;;;;;;;18.74;64.13;99782.56;5082276;28;20058;-61
2022/08/14 04:26:46;;;;;;;9.98;9.10;;;;;;;18.78;64.20;99776.97;5091502;28;20471;-61
2022/08/14 04:29:13;;;;;;;11.48;9.73;;;;;;;18.79;64.18;99779.44;5078893;28;20052;-61
2022/08/14 04:31:41;;;;;;;10.30;9.35;;;;;;;18.77;64.28;99780.97;5071406;28;20053;-61
2022/08/14 04:34:08;;;;;;;9.90;9.00;;;;;;;18.79;64.19;99784.25;5071695;28;20409;-61
2022/08/14 04:43:34;;;;;;;9.65;8.65;;;;;;;18.80;64.13;99780.22;5071479;28;20060;-61
2022/08/14 04:44:53;;;;;;;9.25;8.45;;;;;;;18.85;63.92;99782.69;5083151;28;20071;-60
2022/08/14 04:50:06;;;;;;;10.13;9.18;;;;;;;18.82;64.13;99789.94;5083052;28;20123;-61
2022/08/14 04:52:35;;;;;;;10.95;9.07;;;;;;;18.84;64.03;99786.72;5071539;28;20049;-61
2022/08/14 04:55:03;;;;;;;11.63;9.67;;;;;;;18.86;64.18;99787.16;5074168;28;20476;-61
2022/08/14 04:57:31;;;;;;;9.75;8.75;;;;;;;18.87;64.07;99774.66;5091772;28;20474;-60
2022/08/14 04:59:58;;;;;;;8.85;8.05;;;;;;;18.92;63.81;99774.31;5080273;28;20079;-61
2022/08/14 05:02:27;;;;;;;9.90;8.82;;;;;;;18.96;63.91;99777.97;5083718;28;20067;-61
2022/08/14 05:04:54;;;;;;;10.03;9.03;;;;;;;19.03;63.76;99778.03;5082358;28;20064;-61
2022/08/14 05:07:21;;;;;;;9.65;8.75;;;;;;;19.05;64.03;99774.84;5071481;28;20975;-61
2022/08/14 05:09:50;;;;;;;10.27;9.38;;;;;;;19.10;63.77;99766.00;5070788;28;20061;-61
2022/08/14 05:12:17;;;;;;;10.15;9.25;;;;;;;19.15;63.80;99764.81;5071348;28;20056;-61
2022/08/14 05:14:45;;;;;;;9.95;9.05;;;;;;;19.21;63.54;99760.44;5071111;28;20055;-60
2022/08/14 05:17:12;;;;;;;10.65;9.65;;;;;;;19.24;63.79;99745.56;5084137;28;20056;-61
2022/08/14 05:19:40;;;;;;;10.05;8.73;;;;;;;19.29;63.40;99753.66;5088423;28;20051;-61
2022/08/14 05:22:08;;;;;;;10.60;9.60;;;;;;;19.28;63.51;99752.03;5071254;28;20493;-61
2022/08/14 05:24:35;;;;;;;10.52;9.52;;;;;;;19.39;63.60;99755.75;5075082;28;20059;-61
2022/08/14 05:27:05;;;;;;;9.88;8.77;;;;;;;19.47;63.20;99756.63;5075117;28;20052;-60
2022/08/14 05:29:32;;;;;;;10.15;9.15;;;;;;;19.52;62.85;99753.41;5073759;28;20059;-61
2022/08/14 05:32:05;;;;;;;9.75;8.85;;;;;;;19.58;62.74;99754.66;5075389;28;20055;-60
2022/08/14 05:34:32;;;;;;;9.38;8.50;;;;;;;19.63;62.80;99756.31;5074651;28;20056;-60
2022/08/14 05:37:00;;;;;;;10.07;9.18;;;;;;;19.70;62.56;99758.38;5074221;28;20059;-60
2022/08/14 05:39:28;;;;;;;9.77;8.88;;;;;;;19.76;62.52;99754.00;5074836;28;20056;-61
2022/08/14 05:41:56;;;;;;;10.35;9.45;;;;;;;19.80;62.43;99752.00;5074240;28;20049;-61
2022/08/14 05:44:25;;;;;;;10.15;9.25;;;;;;;19.80;62.55;99755.66;5076031;28;20067;-61
2022/08/14 05:46:52;;;;;;;8.77;7.97;;;;;;;19.89;62.39;99749.66;5080722;28;20438;-60
2022/08/14 05:49:20;;;;;;;9.35;8.32;;;;;;;19.97;62.24;99756.13;5074757;28;20056;-61
2022/08/14 05:51:48;;;;;;;9.90;9.00;;;;;;;20.05;62.19;99752.13;5073681;28;20056;-61
2022/08/14 05:54:15;;;;;;;9.38;8.48;;;;;;;20.17;61.54;99754.63;5071661;28;20409;-61
2022/08/14 05:56:43;;;;;;;9.73;8.82;;;;;;;20.21;62.10;99754.63;5084621;28;20053;-61
2022/08/14 05:59:11;;;;;;;10.77;9.77;;;;;;;20.30;61.79;99751.44;5074165;28;20075;-61
2022/08/14 06:01:39;;;;;;;10.32;9.32;;;;;;;20.39;61.63;99749.03;5073528;28;20067;-62
2022/08/14 06:04:07;;;;;;;10.65;9.55;;;;;;;20.50;61.52;99746.25;5074403;28;20072;-61
2022/08/14 06:06:34;;;;;;;16.75;15.13;;;;;;;20.64;61.37;99743.47;5074186;28;20362;-61
2022/08/14 06:09:01;;;;;;;15.70;14.07;;;;;;;20.76;61.20;99736.63;5084563;28;20052;-61
2022/08/14 06:11:29;;;;;;;14.25;12.95;;;;;;;20.86;60.75;99741.50;5091215;28;20115;-61
2022/08/14 06:13:56;;;;;;;12.20;11.00;;;;;;;20.98;60.39;99741.13;5074138;28;20049;-61
2022/08/14 06:16:23;;;;;;;11.60;10.40;;;;;;;21.13;60.37;99741.13;5074048;28;20416;-62
2022/08/14 06:18:59;;;;;;;10.93;9.80;;;;;;;21.25;60.21;99737.88;5073917;28;20049;-62
2022/08/14 06:21:26;;;;;;;11.20;10.20;;;;;;;21.36;60.12;99749.22;5072826;28;20052;-61
2022/08/14 06:23:54;;;;;;;10.20;9.30;;;;;;;21.48;59.85;99758.13;5084153;28;20052;-61
2022/08/14 06:26:21;;;;;;;10.60;9.60;;;;;;;21.55;59.69;99756.50;5093843;28;20056;-61
2022/08/14 06:28:48;;;;;;;10.00;9.10;;;;;;;21.66;59.85;99751.63;5075340;28;20057;-61
2022/08/14 06:31:16;;;;;;;9.23;8.43;;;;;;;21.82;59.41;99748.38;5073861;28;20056;-61
2022/08/14 06:33:44;;;;;;;9.65;8.85;;;;;;;21.95;59.19;99745.88;5073110;28;20477;-61
2022/08/14 06:36:12;;;;;;;10.40;9.40;;;;;;;22.10;58.83;99736.91;5072586;28;20057;-61
2022/08/14 06:38:40;;;;;;;9.00;8.27;;;;;;;22.20;58.73;99743.75;5079234;28;20052;-61
2022/08/14 06:41:07;;;;;;;9.45;8.65;;;;;;;22.34;58.57;99728.72;5073111;28;20048;-61
2022/08/14 06:43:34;;;;;;;9.82;8.82;;;;;;;22.48;58.30;99730.69;5073030;28;20052;-61
2022/08/14 06:46:02;;;;;;;9.02;8.18;;;;;;;22.61;58.46;99725.34;5073348;28;20052;-61
2022/08/14 06:48:30;;;;;;;9.30;8.40;;;;;;;22.78;58.35;99732.13;5073449;28;20052;-61
2022/08/14 06:50:57;;;;;;;9.27;8.43;;;;;;;22.95;57.81;99731.19;5072448;28;20063;-61
2022/08/14 06:53:26;;;;;;;8.52;7.72;;;;;;;23.13;57.23;99727.44;5083592;28;20044;-61
2022/08/14 06:55:53;;;;;;;8.85;8.05;;;;;;;23.14;57.61;99723.34;5073028;28;20052;-62
2022/08/14 06:58:20;;;;;;;8.38;7.60;;;;;;;23.37;57.04;99726.41;5073196;28;20054;-61
2022/08/14 07:06:14;;;;;;;8.60;7.90;;;;;;;23.94;55.42;99715.66;5067444;28;20071;-61
2022/08/14 07:08:44;;;;;;;8.15;7.43;;;;;;;24.11;54.73;99717.50;5072669;28;20052;-61
2022/08/14 07:11:12;;;;;;;10.80;7.90;;;;;;;24.30;54.50;99722.53;5088152;28;20052;-62
2022/08/14 07:13:40;;;;;;;9.00;8.10;;;;;;;24.47;53.71;99722.72;5077340;28;20048;-61
2022/08/14 07:16:08;;;;;;;8.75;7.95;;;;;;;24.63;53.69;99714.41;5072774;28;20401;-61
2022/08/14 07:18:36;;;;;;;8.20;7.50;;;;;;;24.80;52.75;99706.81;5072927;28;20071;-61
2022/08/14 07:21:05;;;;;;;9.10;8.20;;;;;;;25.23;52.02;99716.72;5076410;28;20484;-61
2022/08/14 07:23:33;;;;;;;;;;;;;;;25.83;50.48;99717.66;5088414;28;20048;-62
2022/08/14 07:26:02;;;;;;;9.38;7.75;;;;;;;26.48;48.28;99714.28;5069886;28;19928;-62
2022/08/14 07:28:33;;;;;;;8.18;7.38;;;;;;;27.20;46.75;99709.72;5069461;28;20064;-61
2022/08/14 07:31:03;;;;;;;7.95;7.25;;;;;;;27.92;44.56;99717.25;5067432;28;20060;-61
2022/08/14 07:33:34;;;;;;;8.18;7.32;;;;;;;28.69;42.67;99710.91;5067965;28;21504;-62
2022/08/14 07:36:05;;;;;;;8.80;7.65;;;;;;;29.43;41.00;99706.81;5070600;28;20055;-61
2022/08/14 07:38:33;;;;;;;7.55;6.75;;;;;;;30.23;39.49;99694.09;5068821;28;20059;-62
2022/08/14 07:41:00;;;;;;;7.45;6.72;;;;;;;31.05;38.18;99692.91;5067465;28;20083;-62
2022/08/14 07:43:28;;;;;;;7.40;6.68;;;;;;;31.73;36.55;99683.41;5072840;28;20056;-62
2022/08/14 07:45:56;;;;;;;7.63;6.93;;;;;;;32.51;35.12;99681.88;5069626;28;20061;-61
2022/08/14 07:48:23;;;;;;;6.38;5.80;;;;;;;33.07;34.38;99676.69;5061428;28;20404;-62
2022/08/14 07:50:50;;;;;;;6.43;5.82;;;;;;;33.69;32.90;99674.38;5069867;28;20041;-62
2022/08/14 07:53:18;;;;;;;5.85;5.35;;;;;;;34.59;31.64;99676.03;5068287;28;20040;-62
2022/08/14 07:55:48;;;;;;;6.27;5.77;;;;;;;35.67;30.08;99681.31;5067202;28;20497;-61
2022/08/14 07:58:17;;;;;;;6.28;5.68;;;;;;;36.49;28.47;99672.41;5067426;28;20491;-62
2022/08/14 08:00:46;;;;;;;6.22;5.70;;;;;;;37.12;27.68;99672.38;5070344;28;20068;-62
2022/08/14 08:03:15;;;;;;;6.38;5.43;;;;;;;37.29;27.23;99674.59;5067000;28;20049;-61
2022/08/14 08:05:42;;;;;;;6.03;5.50;;;;;;;38.29;25.30;99666.75;5070722;28;20059;-61
2022/08/14 08:08:11;;;;;;;6.60;5.90;;;;;;;39.09;25.15;99659.56;5070045;28;20044;-60
2022/08/14 08:10:41;;;;;;;5.80;5.15;;;;;;;40.00;23.65;99651.22;5061140;28;20053;-60
2022/08/14 08:13:11;;;;;;;7.18;5.57;;;;;;;40.66;22.81;99640.38;5064378;28;20492;-62
2022/08/14 08:15:40;;;;;;;5.85;5.35;;;;;;;41.43;21.70;99644.34;5070049;28;20048;-62
2022/08/14 08:18:12;;;;;;;5.65;5.25;;;;;;;41.93;21.02;99637.03;5062037;28;20413;-61
2022/08/14 08:20:42;;;;;;;6.15;5.65;;;;;;;41.38;21.05;99634.31;5055149;28;20053;-61
2022/08/14 08:23:09;;;;;;;5.82;5.32;;;;;;;41.74;21.07;99631.19;5059932;28;20059;-61
2022/08/14 08:25:39;;;;;;;6.13;5.57;;;;;;;42.29;20.18;99630.88;5057396;28;20052;-61
2022/08/14 08:28:08;;;;;;;6.40;5.80;;;;;;;42.72;20.27;99635.75;5067794;28;20052;-61
2022/08/14 08:30:39;;;;;;;5.28;4.80;;;;;;;43.54;19.08;99630.16;5076625;28;20052;-61
2022/08/14 08:33:07;;;;;;;6.22;5.63;;;;;;;44.15;18.49;99627.19;5072513;28;20477;-61
2022/08/14 08:35:39;;;;;;;6.28;5.65;;;;;;;44.52;18.36;99616.38;5072825;28;20051;-61
2022/08/14 08:38:08;;;;;;;5.75;5.35;;;;;;;45.13;17.76;99627.78;5069297;28;20052;-61
2022/08/14 08:40:39;;;;;;;6.63;6.03;;;;;;;45.58;17.21;99617.66;5071567;28;20059;-61
2022/08/14 08:43:16;;;;;;;6.55;5.95;;;;;;;46.56;16.79;99620.69;5070935;28;20048;-61
2022/08/14 08:45:44;;;;;;;7.32;6.65;;;;;;;46.75;16.55;99620.28;5082626;28;20407;-62
2022/08/14 08:48:12;;;;;;;6.35;5.93;;;;;;;47.28;16.08;99612.72;5075216;28;20061;-61
2022/08/14 08:50:47;;;;;;;6.57;6.07;;;;;;;48.49;14.91;99608.91;5071537;28;20053;-62
2022/08/14 08:53:14;;;;;;;6.55;5.95;;;;;;;49.20;14.35;99607.66;5071270;28;20048;-61
2022/08/14 08:55:43;;;;;;;6.43;5.93;;;;;;;49.61;13.80;99602.25;5071678;28;20057;-62
2022/08/14 08:58:13;;;;;;;6.38;5.88;;;;;;;50.26;13.51;99600.94;5074212;28;20052;-62
2022/08/14 09:00:42;;;;;;;6.63;6.10;;;;;;;50.65;13.17;99601.06;5095409;28;20056;-62
2022/08/14 09:03:11;;;;;;;6.30;5.70;;;;;;;50.52;13.04;99608.22;5083776;28;20067;-62
2022/08/14 09:05:50;;;;;;;7.65;7.15;;;;;;;51.19;12.16;99606.81;5075493;28;20064;-62
2022/08/14 09:08:20;;;;;;;7.10;6.63;;;;;;;51.58;12.72;99606.81;5066448;28;20056;-62
2022/08/14 09:10:47;;;;;;;6.07;5.57;;;;;;;51.99;12.03;99606.09;5075560;28;20063;-62
2022/08/14 09:13:15;;;;;;;6.55;6.05;;;;;;;52.41;11.63;99601.72;5076944;28;20055;-62
2022/08/14 09:15:49;;;;;;;6.28;5.75;;;;;;;52.90;11.58;99611.16;5095529;28;20052;-62
2022/08/14 09:18:20;;;;;;;5.43;5.03;;;;;;;53.01;10.88;99612.66;5087302;28;20048;-62
2022/08/14 09:20:51;;;;;;;6.68;5.97;;;;;;;53.26;10.79;99600.25;5075028;28;20052;-62
2022/08/14 09:23:19;;;;;;;6.70;6.30;;;;;;;53.02;11.00;99599.34;5076775;28;20169;-62
2022/08/14 09:25:48;;;;;;;6.95;6.45;;;;;;;53.30;10.66;99594.56;5075022;28;20138;-61
2022/08/14 09:28:18;;;;;;;7.43;6.90;;;;;;;53.89;10.20;99589.63;5082264;28;20048;-62
2022/08/14 09:30:51;;;;;;;6.65;6.25;;;;;;;53.66;10.23;99584.38;5074699;28;20049;-62
2022/08/14 09:33:45;;;;;;;6.50;6.00;;;;;;;53.64;10.31;99586.41;5074840;28;20052;-62
2022/08/14 09:36:49;;;;;;;8.15;7.45;;;;;;;53.86;10.45;99587.16;5074810;28;20494;-62
2022/08/14 09:39:32;;;;;;;7.15;6.65;;;;;;;54.70;9.93;99586.53;5075010;28;20064;-62
2022/08/14 09:42:16;;;;;;;9.30;7.75;;;;;;;54.23;10.12;99584.38;5085564;28;20071;-62
2022/08/14 09:44:57;;;;;;;6.72;6.25;;;;;;;54.46;9.73;99580.63;5083726;28;20044;-62
2022/08/14 09:47:41;;;;;;;6.88;6.38;;;;;;;54.22;9.65;99576.84;5083921;28;20052;-62
2022/08/14 09:50:16;;;;;;;6.55;6.05;;;;;;;54.63;9.13;99566.72;5077252;28;20098;-61
2022/08/14 09:52:51;;;;;;;6.63;6.17;;;;;;;54.91;9.04;99564.72;5077002;28;20075;-61
2022/08/14 09:55:19;;;;;;;7.15;6.55;;;;;;;53.43;9.88;99561.25;5077809;28;20048;-60
2022/08/14 09:57:47;;;;;;;6.53;5.95;;;;;;;52.15;10.84;99569.47;5074665;28;20053;-60
2022/08/14 10:00:18;;;;;;;6.63;6.22;;;;;;;52.10;10.94;99557.88;5081062;28;20071;-60
2022/08/14 10:03:01;;;;;;;7.05;6.57;;;;;;;52.39;10.81;99557.75;5093603;28;20051;-60
2022/08/14 10:05:32;;;;;;;6.70;6.30;;;;;;;52.87;10.45;99544.81;5069658;28;20052;-61
2022/08/14 10:08:02;;;;;;;6.32;5.93;;;;;;;53.34;10.35;99536.09;5072835;28;20053;-61
2022/08/14 10:10:32;;;;;;;6.10;5.55;;;;;;;53.73;9.97;99543.84;5066626;28;20052;-61
2022/08/14 10:13:01;;;;;;;5.18;4.88;;;;;;;54.42;9.36;99534.84;5063341;28;20049;-62
2022/08/14 10:15:30;;;;;;;6.35;5.95;;;;;;;54.70;9.84;99536.59;5070231;28;20052;-61
2022/08/14 10:18:12;;;;;;;6.88;6.18;;;;;;;53.97;10.15;99531.97;5059631;28;20052;-62
2022/08/14 10:20:43;;;;;;;6.38;5.95;;;;;;;53.84;10.21;99528.22;5069876;28;20060;-61
2022/08/14 10:23:14;;;;;;;6.00;5.55;;;;;;;53.95;9.92;99527.44;5069718;28;20071;-61
2022/08/14 10:25:43;;;;;;;6.85;6.35;;;;;;;53.83;9.92;99517.72;5066907;28;20400;-59
2022/08/14 10:28:14;;;;;;;6.93;6.40;;;;;;;54.15;9.87;99504.13;5087247;28;20054;-60
2022/08/14 10:30:43;;;;;;;6.45;5.95;;;;;;;53.97;9.60;99499.19;5086098;28;20048;-60
2022/08/14 10:33:10;;;;;;;5.78;5.38;;;;;;;53.34;10.16;99511.50;5073552;28;20429;-60
2022/08/14 10:35:42;;;;;;;7.05;6.53;;;;;;;53.85;10.20;99508.91;5073622;28;20053;-60
2022/08/14 10:38:10;;;;;;;6.25;5.80;;;;;;;54.31;10.22;99510.34;5073456;28;20055;-60
2022/08/14 10:40:39;;;;;;;6.65;6.15;;;;;;;54.53;9.86;99490.09;5075115;28;20044;-60
2022/08/14 10:43:20;;;;;;;7.35;6.75;;;;;;;54.61;9.36;99489.03;5092443;28;20063;-60
2022/08/14 10:45:57;;;;;;;6.50;6.10;;;;;;;55.07;9.52;99488.09;5089246;28;20056;-61
2022/08/14 10:48:27;;;;;;;6.63;6.13;;;;;;;54.73;9.70;99489.75;5073222;28;20512;-61
2022/08/14 10:50:59;;;;;;;6.82;6.22;;;;;;;54.52;9.61;99482.59;5073354;28;20397;-62
2022/08/14 10:53:33;;;;;;;6.10;5.70;;;;;;;54.58;9.41;99484.38;5073547;28;20053;-61
2022/08/14 10:56:08;;;;;;;5.93;5.53;;;;;;;55.22;9.20;99485.97;5069230;28;20063;-61
2022/08/14 10:58:35;;;;;;;6.32;5.85;;;;;;;54.65;9.23;99484.09;5092193;28;20496;-61
2022/08/14 11:01:06;;;;;;;6.50;6.00;;;;;;;53.80;9.72;99480.28;5088494;28;20505;-61
2022/08/14 11:03:38;;;;;;;6.20;5.70;;;;;;;53.70;9.77;99482.56;5072968;28;20057;-61
2022/08/14 11:06:17;;;;;;;5.50;5.10;;;;;;;53.18;9.66;99481.44;5072738;28;20055;-61
2022/08/14 11:08:44;;;;;;;6.90;6.50;;;;;;;54.00;9.39;99477.06;5073172;28;20053;-61
2022/08/14 11:11:13;;;;;;;6.18;5.78;;;;;;;53.93;9.85;99473.69;5074751;28;20048;-61
2022/08/14 11:13:45;;;;;;;6.65;6.15;;;;;;;54.43;9.03;99464.81;5072245;28;20417;-61
2022/08/14 11:16:14;;;;;;;6.50;6.10;;;;;;;54.32;9.66;99458.22;5093109;28;20504;-61
2022/08/14 11:18:47;;;;;;;6.53;6.03;;;;;;;55.21;8.93;99452.34;5073161;28;20052;-61
2022/08/14 11:21:18;;;;;;;7.07;6.43;;;;;;;55.09;8.79;99457.63;5072680;28;20079;-61
2022/08/14 11:23:48;;;;;;;7.32;6.93;;;;;;;54.52;9.57;99448.97;5072741;28;20056;-61
2022/08/14 11:26:18;;;;;;;7.00;6.57;;;;;;;54.24;9.86;99463.69;5085451;28;20055;-60
2022/08/14 11:28:49;;;;;;;6.35;5.85;;;;;;;54.27;9.54;99449.66;5070478;28;20057;-60
2022/08/14 11:31:20;;;;;;;6.20;5.78;;;;;;;53.78;9.90;99447.34;5072581;28;20063;-60
2022/08/14 11:33:56;;;;;;;7.80;6.93;;;;;;;53.28;9.96;99439.66;5072119;28;20060;-61
2022/08/14 11:36:27;;;;;;;7.88;7.28;;;;;;;52.44;10.64;99448.81;5072590;28;20098;-61
2022/08/14 11:38:54;;;;;;;7.07;6.57;;;;;;;52.27;10.79;99438.81;5072624;28;20517;-60
2022/08/14 11:41:26;;;;;;;5.15;4.85;;;;;;;52.93;10.03;99440.31;5081817;28;20051;-60
2022/08/14 11:43:53;;;;;;;6.00;5.60;;;;;;;52.39;10.24;99432.91;5076991;28;20053;-60
2022/08/14 11:46:22;;;;;;;5.22;4.93;;;;;;;51.69;10.70;99433.16;5072259;28;20045;-60
2022/08/14 11:48:52;;;;;;;5.75;5.35;;;;;;;50.10;11.94;99425.63;5071986;28;20056;-60
2022/08/14 11:51:23;;;;;;;5.85;5.32;;;;;;;48.95;12.70;99425.16;5071678;28;20052;-60
2022/08/14 11:53:53;;;;;;;5.28;4.88;;;;;;;47.80;13.56;99432.25;5072820;28;20045;-60
2022/08/14 11:56:20;;;;;;;6.35;5.82;;;;;;;46.83;14.19;99428.69;5072127;28;20060;-60
2022/08/14 11:58:52;;;;;;;5.25;4.85;;;;;;;47.35;14.05;99429.00;5072144;28;20052;-60
2022/08/14 12:01:27;;;;;;;6.15;5.72;;;;;;;47.81;14.07;99428.69;5071535;28;20079;-61
2022/08/14 12:03:57;;;;;;;5.80;5.40;;;;;;;47.79;13.61;99422.59;5072200;28;20053;-61
2022/08/14 12:06:25;;;;;;;5.95;5.45;;;;;;;46.94;14.07;99416.47;5072356;28;20060;-61
2022/08/14 12:08:55;;;;;;;5.53;5.13;;;;;;;45.51;15.30;99425.06;5070478;28;20052;-61